sensor_id;sensor_type;location;lat;lon;timestamp;pressure;altitude;pressure_sealevel;temperature;humidity
59787;BME280;45672;51.612;5.536;2022-12-18T00:02:22;102631.06;;;-5.14;100.00
59787;BME280;45672;51.612;5.536;2022-12-18T00:04:47;102636.19;;;-5.10;100.00
59787;BME280;45672;51.612;5.536;2022-12-18T00:07:12;102636.19;;;-5.07;100.00
59787;BME280;45672;51.612;5.536;2022-12-18T00:09:38;102632.72;;;-5.04;100.00
59787;BME280;45672;51.612;5.536;2022-12-18T00:12:03;102625.81;;;-5.07;100.00
59787;BME280;45672;51.612;5.536;2022-12-18T00:14:28;102630.97;;;-5.05;100.00
59787;BME280;45672;51.612;5.536;2022-12-18T00:16:54;102636.16;;;-5.05;100.00
59787;BME280;45672;51.612;5.536;2022-12-18T00:19:19;102631.00;;;-5.07;100.00
59787;BME280;45672;51.612;5.536;2022-12-18T00:21:44;102631.00;;;-5.08;100.00
59787;BME280;45672;51.612;5.536;2022-12-18T00:24:10;102631.06;;;-5.21;100.00
59787;BME280;45672;51.612;5.536;2022-12-18T00:26:37;102613.88;;;-5.35;100.00
59787;BME280;45672;51.612;5.536;2022-12-18T00:29:09;102615.63;;;-5.41;100.00
59787;BME280;45672;51.612;5.536;2022-12-18T00:31:36;102617.34;;;-5.40;100.00
59787;BME280;45672;51.612;5.536;2022-12-18T00:34:02;102614.75;;;-5.40;100.00
59787;BME280;45672;51.612;5.536;2022-12-18T00:36:30;102601.81;;;-5.41;100.00
59787;BME280;45672;51.612;5.536;2022-12-18T00:38:57;102617.31;;;-5.33;100.00
59787;BME280;45672;51.612;5.536;2022-12-18T00:41:23;102621.66;;;-5.35;100.00
59787;BME280;45672;51.612;5.536;2022-12-18T00:44:10;102612.13;;;-5.35;100.00
59787;BME280;45672;51.612;5.536;2022-12-18T00:46:35;102607.78;;;-5.34;100.00
59787;BME280;45672;51.612;5.536;2022-12-18T00:49:01;102616.47;;;-5.37;100.00
59787;BME280;45672;51.612;5.536;2022-12-18T00:51:26;102609.53;;;-5.37;100.00
59787;BME280;45672;51.612;5.536;2022-12-18T00:53:52;102611.28;;;-5.42;100.00
59787;BME280;45672;51.612;5.536;2022-12-18T00:56:17;102604.41;;;-5.44;100.00
59787;BME280;45672;51.612;5.536;2022-12-18T00:58:46;102614.78;;;-5.41;100.00
59787;BME280;45672;51.612;5.536;2022-12-18T01:01:11;102602.69;;;-5.47;100.00
59787;BME280;45672;51.612;5.536;2022-12-18T01:03:36;102597.50;;;-5.47;100.00
59787;BME280;45672;51.612;5.536;2022-12-18T01:06:10;102607.88;;;-5.47;100.00
59787;BME280;45672;51.612;5.536;2022-12-18T01:08:37;102597.53;;;-5.53;100.00
59787;BME280;45672;51.612;5.536;2022-12-18T01:11:17;102623.44;;;-5.47;100.00
59787;BME280;45672;51.612;5.536;2022-12-18T01:13:43;102633.81;;;-5.53;100.00
59787;BME280;45672;51.612;5.536;2022-12-18T01:16:11;102636.44;;;-5.53;100.00
59787;BME280;45672;51.612;5.536;2022-12-18T01:18:36;102629.53;;;-5.57;100.00
59787;BME280;45672;51.612;5.536;2022-12-18T01:21:09;102637.31;;;-5.57;100.00
59787;BME280;45672;51.612;5.536;2022-12-18T01:23:34;102632.13;;;-5.57;100.00
59787;BME280;45672;51.612;5.536;2022-12-18T01:26:26;102632.97;;;-5.54;100.00
59787;BME280;45672;51.612;5.536;2022-12-18T01:28:55;102628.66;;;-5.56;100.00
59787;BME280;45672;51.612;5.536;2022-12-18T01:31:26;102636.44;;;-5.55;100.00
59787;BME280;45672;51.612;5.536;2022-12-18T01:33:53;102634.72;;;-5.56;100.00
59787;BME280;45672;51.612;5.536;2022-12-18T01:36:26;102630.41;;;-5.58;100.00
59787;BME280;45672;51.612;5.536;2022-12-18T01:38:52;102627.00;;;-5.68;100.00
59787;BME280;45672;51.612;5.536;2022-12-18T01:41:21;102620.94;;;-5.72;100.00
59787;BME280;45672;51.612;5.536;2022-12-18T01:46:20;102615.78;;;-5.75;100.00
59787;BME280;45672;51.612;5.536;2022-12-18T01:48:47;102610.63;;;-5.79;100.00
59787;BME280;45672;51.612;5.536;2022-12-18T01:51:15;102596.84;;;-5.89;100.00
59787;BME280;45672;51.612;5.536;2022-12-18T01:53:42;102613.22;;;-5.78;100.00
59787;BME280;45672;51.612;5.536;2022-12-18T01:56:12;102605.44;;;-5.81;100.00
59787;BME280;45672;51.612;5.536;2022-12-18T01:58:59;102614.03;;;-5.76;100.00
59787;BME280;45672;51.612;5.536;2022-12-18T02:01:26;102614.91;;;-5.74;100.00
59787;BME280;45672;51.612;5.536;2022-12-18T02:03:52;102611.47;;;-5.76;100.00
59787;BME280;45672;51.612;5.536;2022-12-18T02:06:34;102610.59;;;-5.76;100.00
59787;BME280;45672;51.612;5.536;2022-12-18T02:09:12;102614.94;;;-5.75;100.00
59787;BME280;45672;51.612;5.536;2022-12-18T02:11:43;102606.28;;;-5.76;100.00
59787;BME280;45672;51.612;5.536;2022-12-18T02:14:21;102605.44;;;-5.79;99.94
59787;BME280;45672;51.612;5.536;2022-12-18T02:16:58;102609.75;;;-5.83;100.00
59787;BME280;45672;51.612;5.536;2022-12-18T02:22:39;102600.25;;;-5.79;100.00
59787;BME280;45672;51.612;5.536;2022-12-18T02:27:49;102599.44;;;-5.89;99.89
59787;BME280;45672;51.612;5.536;2022-12-18T02:30:15;102609.75;;;-5.83;100.00
59787;BME280;45672;51.612;5.536;2022-12-18T02:32:46;102608.94;;;-5.94;100.00
59787;BME280;45672;51.612;5.536;2022-12-18T02:35:17;102601.22;;;-5.97;100.00
59787;BME280;45672;51.612;5.536;2022-12-18T02:37:46;102604.66;;;-5.97;100.00
59787;BME280;45672;51.612;5.536;2022-12-18T02:40:13;102602.06;;;-5.95;100.00
59787;BME280;45672;51.612;5.536;2022-12-18T02:42:39;102608.94;;;-5.96;100.00
59787;BME280;45672;51.612;5.536;2022-12-18T02:45:05;102598.56;;;-5.96;99.97
59787;BME280;45672;51.612;5.536;2022-12-18T02:47:33;102597.72;;;-5.96;100.00
59787;BME280;45672;51.612;5.536;2022-12-18T02:57:54;102581.31;;;-5.97;99.87
59787;BME280;45672;51.612;5.536;2022-12-18T03:00:35;102577.84;;;-5.96;100.00
59787;BME280;45672;51.612;5.536;2022-12-18T03:03:13;102576.16;;;-6.00;100.00
59787;BME280;45672;51.612;5.536;2022-12-18T03:05:44;102582.25;;;-6.02;99.81
59787;BME280;45672;51.612;5.536;2022-12-18T03:10:56;102577.03;;;-6.06;100.00
59787;BME280;45672;51.612;5.536;2022-12-18T03:13:28;102574.47;;;-6.09;99.54
59787;BME280;45672;51.612;5.536;2022-12-18T03:15:58;102565.00;;;-6.10;99.42
59787;BME280;45672;51.612;5.536;2022-12-18T03:21:10;102571.00;;;-6.08;99.36
59787;BME280;45672;51.612;5.536;2022-12-18T03:23:40;102566.72;;;-6.12;99.43
59787;BME280;45672;51.612;5.536;2022-12-18T03:26:09;102576.22;;;-6.12;99.33
59787;BME280;45672;51.612;5.536;2022-12-18T03:28:40;102579.69;;;-6.15;99.77
59787;BME280;45672;51.612;5.536;2022-12-18T03:31:09;102571.06;;;-6.21;99.61
59787;BME280;45672;51.612;5.536;2022-12-18T03:36:05;102563.34;;;-6.32;99.64
59787;BME280;45672;51.612;5.536;2022-12-18T03:38:30;102559.88;;;-6.39;99.74
59787;BME280;45672;51.612;5.536;2022-12-18T03:40:59;102555.56;;;-6.38;99.97
59787;BME280;45672;51.612;5.536;2022-12-18T03:43:35;102562.47;;;-6.37;99.65
59787;BME280;45672;51.612;5.536;2022-12-18T03:46:08;102550.38;;;-6.37;99.99
59787;BME280;45672;51.612;5.536;2022-12-18T03:48:44;102555.56;;;-6.37;99.50
59787;BME280;45672;51.612;5.536;2022-12-18T03:51:24;102550.38;;;-6.35;100.00
59787;BME280;45672;51.612;5.536;2022-12-18T03:53:57;102551.25;;;-6.35;99.42
59787;BME280;45672;51.612;5.536;2022-12-18T03:56:26;102539.16;;;-6.37;99.75
59787;BME280;45672;51.612;5.536;2022-12-18T03:58:55;102546.94;;;-6.39;99.69
59787;BME280;45672;51.612;5.536;2022-12-18T04:01:26;102546.97;;;-6.44;99.89
59787;BME280;45672;51.612;5.536;2022-12-18T04:03:53;102539.19;;;-6.45;99.93
59787;BME280;45672;51.612;5.536;2022-12-18T04:06:20;102522.78;;;-6.49;100.00
59787;BME280;45672;51.612;5.536;2022-12-18T04:08:47;102530.53;;;-6.44;99.67
59787;BME280;45672;51.612;5.536;2022-12-18T04:11:12;102529.69;;;-6.45;100.00
59787;BME280;45672;51.612;5.536;2022-12-18T04:13:38;102521.06;;;-6.45;100.00
59787;BME280;45672;51.612;5.536;2022-12-18T04:16:04;102515.03;;;-6.49;99.88
59787;BME280;45672;51.612;5.536;2022-12-18T04:18:30;102514.16;;;-6.52;100.00
59787;BME280;45672;51.612;5.536;2022-12-18T04:20:55;102508.97;;;-6.52;99.48
59787;BME280;45672;51.612;5.536;2022-12-18T04:23:20;102505.56;;;-6.57;99.65
59787;BME280;45672;51.612;5.536;2022-12-18T04:25:46;102520.22;;;-6.56;99.71
59787;BME280;45672;51.612;5.536;2022-12-18T04:28:13;102506.41;;;-6.57;99.79
59787;BME280;45672;51.612;5.536;2022-12-18T04:30:38;102507.25;;;-6.60;99.83
59787;BME280;45672;51.612;5.536;2022-12-18T04:33:04;102502.09;;;-6.55;99.62
59787;BME280;45672;51.612;5.536;2022-12-18T04:35:29;102499.53;;;-6.64;99.97
59787;BME280;45672;51.612;5.536;2022-12-18T04:37:55;102503.84;;;-6.62;99.67
59787;BME280;45672;51.612;5.536;2022-12-18T04:40:20;102513.31;;;-6.57;99.98
59787;BME280;45672;51.612;5.536;2022-12-18T04:42:46;102510.72;;;-6.57;100.00
59787;BME280;45672;51.612;5.536;2022-12-18T04:45:11;102516.75;;;-6.57;100.00
59787;BME280;45672;51.612;5.536;2022-12-18T04:47:36;102521.06;;;-6.54;99.54
59787;BME280;45672;51.612;5.536;2022-12-18T04:50:02;102528.00;;;-6.53;99.93
59787;BME280;45672;51.612;5.536;2022-12-18T04:52:27;102528.84;;;-6.53;99.46
59787;BME280;45672;51.612;5.536;2022-12-18T04:54:53;102540.94;;;-6.55;99.62
59787;BME280;45672;51.612;5.536;2022-12-18T04:57:18;102534.03;;;-6.59;99.61
59787;BME280;45672;51.612;5.536;2022-12-18T04:59:44;102540.06;;;-6.55;99.24
59787;BME280;45672;51.612;5.536;2022-12-18T05:02:10;102547.84;;;-6.57;99.16
59787;BME280;45672;51.612;5.536;2022-12-18T05:04:35;102558.19;;;-6.55;99.18
59787;BME280;45672;51.612;5.536;2022-12-18T05:07:01;102555.59;;;-6.55;99.25
59787;BME280;45672;51.612;5.536;2022-12-18T05:09:26;102558.19;;;-6.57;99.13
59787;BME280;45672;51.612;5.536;2022-12-18T05:11:51;102561.66;;;-6.56;99.41
59787;BME280;45672;51.612;5.536;2022-12-18T05:14:16;102560.78;;;-6.55;99.19
59787;BME280;45672;51.612;5.536;2022-12-18T05:16:42;102560.75;;;-6.54;99.57
59787;BME280;45672;51.612;5.536;2022-12-18T05:19:07;102559.91;;;-6.51;99.42
59787;BME280;45672;51.612;5.536;2022-12-18T05:21:32;102560.78;;;-6.51;99.37
59787;BME280;45672;51.612;5.536;2022-12-18T05:23:58;102564.22;;;-6.49;99.41
59787;BME280;45672;51.612;5.536;2022-12-18T05:26:23;102557.31;;;-6.53;98.91
59787;BME280;45672;51.612;5.536;2022-12-18T05:28:48;102559.91;;;-6.53;98.95
59787;BME280;45672;51.612;5.536;2022-12-18T05:31:14;102556.47;;;-6.55;99.61
59787;BME280;45672;51.612;5.536;2022-12-18T05:33:40;102556.44;;;-6.58;98.84
59787;BME280;45672;51.612;5.536;2022-12-18T05:36:07;102542.69;;;-6.63;99.40
59787;BME280;45672;51.612;5.536;2022-12-18T05:38:35;102547.88;;;-6.66;99.63
59787;BME280;45672;51.612;5.536;2022-12-18T05:41:01;102547.88;;;-6.66;99.67
59787;BME280;45672;51.612;5.536;2022-12-18T05:43:27;102545.25;;;-6.65;99.61
59787;BME280;45672;51.612;5.536;2022-12-18T05:45:53;102540.06;;;-6.62;99.75
59787;BME280;45672;51.612;5.536;2022-12-18T05:48:19;102538.34;;;-6.60;99.72
59787;BME280;45672;51.612;5.536;2022-12-18T05:50:46;102536.63;;;-6.59;99.68
59787;BME280;45672;51.612;5.536;2022-12-18T05:53:13;102536.63;;;-6.56;99.93
59787;BME280;45672;51.612;5.536;2022-12-18T05:55:40;102531.44;;;-6.56;99.48
59787;BME280;45672;51.612;5.536;2022-12-18T05:58:07;102523.66;;;-6.53;99.78
59787;BME280;45672;51.612;5.536;2022-12-18T06:00:36;102523.66;;;-6.56;99.54
59787;BME280;45672;51.612;5.536;2022-12-18T06:03:05;102515.03;;;-6.58;99.68
59787;BME280;45672;51.612;5.536;2022-12-18T06:05:34;102522.81;;;-6.61;99.67
59787;BME280;45672;51.612;5.536;2022-12-18T06:08:00;102521.97;;;-6.62;99.62
59787;BME280;45672;51.612;5.536;2022-12-18T06:10:25;102520.22;;;-6.64;99.59
59787;BME280;45672;51.612;5.536;2022-12-18T06:12:50;102512.47;;;-6.64;99.72
59787;BME280;45672;51.612;5.536;2022-12-18T06:15:16;102509.88;;;-6.64;100.00
59787;BME280;45672;51.612;5.536;2022-12-18T06:17:41;102504.69;;;-6.63;100.00
59787;BME280;45672;51.612;5.536;2022-12-18T06:20:06;102503.84;;;-6.63;100.00
59787;BME280;45672;51.612;5.536;2022-12-18T06:22:32;102508.16;;;-6.61;99.91
59787;BME280;45672;51.612;5.536;2022-12-18T06:24:57;102509.88;;;-6.61;100.00
59787;BME280;45672;51.612;5.536;2022-12-18T06:27:24;102511.63;;;-6.68;99.65
59787;BME280;45672;51.612;5.536;2022-12-18T06:29:49;102523.66;;;-6.64;99.81
59787;BME280;45672;51.612;5.536;2022-12-18T06:32:15;102525.41;;;-6.63;100.00
59787;BME280;45672;51.612;5.536;2022-12-18T06:34:40;102517.63;;;-6.63;99.73
59787;BME280;45672;51.612;5.536;2022-12-18T06:37:05;102521.97;;;-6.66;99.69
59787;BME280;45672;51.612;5.536;2022-12-18T06:39:31;102513.31;;;-6.65;99.62
59787;BME280;45672;51.612;5.536;2022-12-18T06:41:56;102519.38;;;-6.66;100.00
59787;BME280;45672;51.612;5.536;2022-12-18T06:44:21;102513.31;;;-6.64;99.62
59787;BME280;45672;51.612;5.536;2022-12-18T06:46:47;102510.75;;;-6.62;100.00
59787;BME280;45672;51.612;5.536;2022-12-18T06:49:12;102500.41;;;-6.62;99.67
59787;BME280;45672;51.612;5.536;2022-12-18T06:51:38;102501.25;;;-6.60;99.99
59787;BME280;45672;51.612;5.536;2022-12-18T06:54:03;102501.22;;;-6.59;100.00
59787;BME280;45672;51.612;5.536;2022-12-18T06:56:28;102495.22;;;-6.61;100.00
59787;BME280;45672;51.612;5.536;2022-12-18T06:58:54;102499.50;;;-6.60;99.98
59787;BME280;45672;51.612;5.536;2022-12-18T07:01:20;102506.41;;;-6.60;99.53
59787;BME280;45672;51.612;5.536;2022-12-18T07:03:46;102497.81;;;-6.62;99.20
59787;BME280;45672;51.612;5.536;2022-12-18T07:06:19;102491.75;;;-6.63;99.74
59787;BME280;45672;51.612;5.536;2022-12-18T07:08:46;102494.34;;;-6.64;99.78
59787;BME280;45672;51.612;5.536;2022-12-18T07:11:12;102490.91;;;-6.66;99.34
59787;BME280;45672;51.612;5.536;2022-12-18T07:13:37;102496.09;;;-6.66;99.45
59787;BME280;45672;51.612;5.536;2022-12-18T07:18:35;102474.50;;;-6.65;99.62
59787;BME280;45672;51.612;5.536;2022-12-18T07:21:04;102476.22;;;-6.63;99.34
59787;BME280;45672;51.612;5.536;2022-12-18T07:23:32;102465.84;;;-6.63;99.41
59787;BME280;45672;51.612;5.536;2022-12-18T07:26:10;102461.53;;;-6.64;99.38
59787;BME280;45672;51.612;5.536;2022-12-18T07:28:37;102465.84;;;-6.63;99.48
59787;BME280;45672;51.612;5.536;2022-12-18T07:31:07;102461.53;;;-6.65;99.10
59787;BME280;45672;51.612;5.536;2022-12-18T07:33:33;102452.94;;;-6.69;99.19
59787;BME280;45672;51.612;5.536;2022-12-18T07:36:00;102451.22;;;-6.71;99.91
59787;BME280;45672;51.612;5.536;2022-12-18T07:38:25;102440.00;;;-6.70;99.62
59787;BME280;45672;51.612;5.536;2022-12-18T07:40:50;102445.16;;;-6.67;100.00
59787;BME280;45672;51.612;5.536;2022-12-18T07:43:15;102436.56;;;-6.68;100.00
59787;BME280;45672;51.612;5.536;2022-12-18T07:45:42;102439.13;;;-6.62;100.00
59787;BME280;45672;51.612;5.536;2022-12-18T07:48:07;102435.66;;;-6.59;100.00
59787;BME280;45672;51.612;5.536;2022-12-18T07:50:32;102431.31;;;-6.57;100.00
59787;BME280;45672;51.612;5.536;2022-12-18T07:52:57;102414.91;;;-6.53;100.00
59787;BME280;45672;51.612;5.536;2022-12-18T07:55:23;102407.16;;;-6.54;100.00
59787;BME280;45672;51.612;5.536;2022-12-18T07:57:48;102408.00;;;-6.48;100.00
59787;BME280;45672;51.612;5.536;2022-12-18T08:00:15;102393.28;;;-6.44;100.00
59787;BME280;45672;51.612;5.536;2022-12-18T08:02:41;102400.19;;;-6.43;100.00
59787;BME280;45672;51.612;5.536;2022-12-18T08:05:06;102399.28;;;-6.34;100.00
59787;BME280;45672;51.612;5.536;2022-12-18T08:07:32;102407.00;;;-6.28;100.00
59787;BME280;45672;51.612;5.536;2022-12-18T08:09:57;102415.59;;;-6.20;100.00
59787;BME280;45672;51.612;5.536;2022-12-18T08:12:22;102413.81;;;-6.10;100.00
59787;BME280;45672;51.612;5.536;2022-12-18T08:14:47;102405.16;;;-6.03;100.00
59787;BME280;45672;51.612;5.536;2022-12-18T08:17:13;102411.13;;;-5.96;100.00
59787;BME280;45672;51.612;5.536;2022-12-18T08:19:38;102403.28;;;-5.90;100.00
59787;BME280;45672;51.612;5.536;2022-12-18T08:22:03;102413.63;;;-5.82;100.00
59787;BME280;45672;51.612;5.536;2022-12-18T08:24:30;102416.19;;;-5.78;100.00
59787;BME280;45672;51.612;5.536;2022-12-18T08:26:55;102437.69;;;-5.63;100.00
59787;BME280;45672;51.612;5.536;2022-12-18T08:29:22;102425.59;;;-5.63;100.00
59787;BME280;45672;51.612;5.536;2022-12-18T08:31:47;102426.31;;;-5.45;100.00
59787;BME280;45672;51.612;5.536;2022-12-18T08:34:13;102429.69;;;-5.37;99.96
59787;BME280;45672;51.612;5.536;2022-12-18T08:36:38;102415.81;;;-5.31;99.98
59787;BME280;45672;51.612;5.536;2022-12-18T08:39:03;102427.00;;;-5.26;99.88
59787;BME280;45672;51.612;5.536;2022-12-18T08:41:30;102427.84;;;-5.24;99.64
59787;BME280;45672;51.612;5.536;2022-12-18T08:43:55;102421.75;;;-5.18;100.00
59787;BME280;45672;51.612;5.536;2022-12-18T08:46:41;102414.75;;;-5.13;100.00
59787;BME280;45672;51.612;5.536;2022-12-18T08:49:08;102405.25;;;-5.13;100.00
59787;BME280;45672;51.612;5.536;2022-12-18T08:51:34;102393.97;;;-5.10;99.69
59787;BME280;45672;51.612;5.536;2022-12-18T08:53:59;102387.03;;;-5.07;99.46
59787;BME280;45672;51.612;5.536;2022-12-18T08:56:25;102396.47;;;-4.99;99.89
59787;BME280;45672;51.612;5.536;2022-12-18T08:58:54;102398.03;;;-4.88;99.83
59787;BME280;45672;51.612;5.536;2022-12-18T09:01:20;102388.38;;;-4.75;100.00
59787;BME280;45672;51.612;5.536;2022-12-18T09:03:47;102381.38;;;-4.68;99.42
59787;BME280;45672;51.612;5.536;2022-12-18T09:06:20;102390.75;;;-4.55;98.98
59787;BME280;45672;51.612;5.536;2022-12-18T09:08:46;102397.63;;;-4.49;98.85
59787;BME280;45672;51.612;5.536;2022-12-18T09:11:19;102402.72;;;-4.43;99.01
59787;BME280;45672;51.612;5.536;2022-12-18T09:13:45;102408.66;;;-4.33;98.99
59787;BME280;45672;51.612;5.536;2022-12-18T09:16:10;102400.75;;;-4.27;98.46
59787;BME280;45672;51.612;5.536;2022-12-18T09:18:36;102398.09;;;-4.22;98.20
59787;BME280;45672;51.612;5.536;2022-12-18T09:21:08;102393.72;;;-4.17;98.08
59787;BME280;45672;51.612;5.536;2022-12-18T09:23:33;102417.84;;;-4.09;98.67
59787;BME280;45672;51.612;5.536;2022-12-18T09:26:00;102421.28;;;-4.07;98.96
59787;BME280;45672;51.612;5.536;2022-12-18T09:28:25;102424.72;;;-4.03;98.27
59787;BME280;45672;51.612;5.536;2022-12-18T09:30:51;102428.09;;;-3.96;98.13
59787;BME280;45672;51.612;5.536;2022-12-18T09:33:16;102425.38;;;-3.90;97.75
59787;BME280;45672;51.612;5.536;2022-12-18T09:35:44;102415.81;;;-3.88;97.11
59787;BME280;45672;51.612;5.536;2022-12-18T09:38:13;102411.44;;;-3.85;96.97
59787;BME280;45672;51.612;5.536;2022-12-18T09:40:57;102407.97;;;-3.85;97.93
59787;BME280;45672;51.612;5.536;2022-12-18T09:43:29;102393.34;;;-3.92;97.90
59787;BME280;45672;51.612;5.536;2022-12-18T09:46:01;102388.94;;;-3.87;97.64
59787;BME280;45672;51.612;5.536;2022-12-18T09:48:32;102383.66;;;-3.83;97.60
59787;BME280;45672;51.612;5.536;2022-12-18T09:51:11;102377.44;;;-3.74;97.99
59787;BME280;45672;51.612;5.536;2022-12-18T09:53:40;102375.63;;;-3.69;96.83
59787;BME280;45672;51.612;5.536;2022-12-18T09:56:06;102375.69;;;-3.72;97.06
59787;BME280;45672;51.612;5.536;2022-12-18T09:58:45;102368.69;;;-3.67;97.63
59787;BME280;45672;51.612;5.536;2022-12-18T10:01:19;102362.50;;;-3.63;96.95
59787;BME280;45672;51.612;5.536;2022-12-18T10:03:45;102365.91;;;-3.57;96.61
59787;BME280;45672;51.612;5.536;2022-12-18T10:06:32;102363.13;;;-3.47;96.03
59787;BME280;45672;51.612;5.536;2022-12-18T10:14:30;102357.66;;;-3.33;96.40
59787;BME280;45672;51.612;5.536;2022-12-18T10:17:35;102368.72;;;-3.20;95.94
59787;BME280;45672;51.612;5.536;2022-12-18T10:22:47;102375.53;;;-3.13;95.73
59787;BME280;45672;51.612;5.536;2022-12-18T10:27:46;102368.47;;;-3.07;95.70
59787;BME280;45672;51.612;5.536;2022-12-18T10:30:17;102362.25;;;-3.00;96.09
59787;BME280;45672;51.612;5.536;2022-12-18T10:32:42;102356.00;;;-2.91;95.52
59787;BME280;45672;51.612;5.536;2022-12-18T10:35:17;102346.28;;;-2.83;95.39
59787;BME280;45672;51.612;5.536;2022-12-18T10:38:01;102341.09;;;-2.83;95.09
59787;BME280;45672;51.612;5.536;2022-12-18T10:40:27;102339.44;;;-2.87;95.32
59787;BME280;45672;51.612;5.536;2022-12-18T10:43:11;102329.84;;;-2.85;95.50
59787;BME280;45672;51.612;5.536;2022-12-18T10:45:37;102326.34;;;-2.83;95.79
59787;BME280;45672;51.612;5.536;2022-12-18T10:48:03;102316.56;;;-2.73;95.34
59787;BME280;45672;51.612;5.536;2022-12-18T10:50:32;102315.59;;;-2.69;94.97
59787;BME280;45672;51.612;5.536;2022-12-18T10:53:00;102312.00;;;-2.63;95.26
59787;BME280;45672;51.612;5.536;2022-12-18T10:55:32;102314.50;;;-2.57;94.58
59787;BME280;45672;51.612;5.536;2022-12-18T11:01:11;102293.38;;;-2.46;93.94
59787;BME280;45672;51.612;5.536;2022-12-18T11:03:40;102294.19;;;-2.43;94.08
59787;BME280;45672;51.612;5.536;2022-12-18T11:06:08;102288.06;;;-2.40;94.51
59787;BME280;45672;51.612;5.536;2022-12-18T11:08:34;102279.34;;;-2.40;93.91
59787;BME280;45672;51.612;5.536;2022-12-18T11:11:00;102285.25;;;-2.32;93.79
59787;BME280;45672;51.612;5.536;2022-12-18T11:13:28;102287.81;;;-2.31;94.42
59787;BME280;45672;51.612;5.536;2022-12-18T11:15:54;102286.91;;;-2.28;93.71
59787;BME280;45672;51.612;5.536;2022-12-18T11:18:34;102300.72;;;-2.24;93.53
59787;BME280;45672;51.612;5.536;2022-12-18T11:21:06;102295.53;;;-2.26;93.52
59787;BME280;45672;51.612;5.536;2022-12-18T11:23:32;102292.78;;;-2.20;94.97
59787;BME280;45672;51.612;5.536;2022-12-18T11:26:01;102288.31;;;-2.15;94.54
59787;BME280;45672;51.612;5.536;2022-12-18T11:28:34;102288.38;;;-2.18;92.58
59787;BME280;45672;51.612;5.536;2022-12-18T11:31:21;102282.25;;;-2.15;92.81
59787;BME280;45672;51.612;5.536;2022-12-18T11:34:11;102274.22;;;-2.08;93.43
59787;BME280;45672;51.612;5.536;2022-12-18T11:36:43;102268.06;;;-2.05;94.94
59787;BME280;45672;51.612;5.536;2022-12-18T11:41:52;102275.78;;;-1.99;92.43
59787;BME280;45672;51.612;5.536;2022-12-18T11:44:47;102269.59;;;-1.95;92.95
59787;BME280;45672;51.612;5.536;2022-12-18T11:47:21;102262.66;;;-1.96;92.52
59787;BME280;45672;51.612;5.536;2022-12-18T11:49:51;102253.06;;;-1.95;92.59
59787;BME280;45672;51.612;5.536;2022-12-18T11:52:24;102255.53;;;-1.91;92.00
59787;BME280;45672;51.612;5.536;2022-12-18T11:54:52;102260.75;;;-1.91;92.31
59787;BME280;45672;51.612;5.536;2022-12-18T11:57:33;102260.63;;;-1.84;91.97
59787;BME280;45672;51.612;5.536;2022-12-18T12:00:07;102263.09;;;-1.80;92.41
59787;BME280;45672;51.612;5.536;2022-12-18T12:05:38;102243.91;;;-1.77;91.50
59787;BME280;45672;51.612;5.536;2022-12-18T12:16:53;102216.66;;;-1.67;90.66
59787;BME280;45672;51.612;5.536;2022-12-18T12:22:20;102221.91;;;-1.68;90.44
59787;BME280;45672;51.612;5.536;2022-12-18T12:30:55;102211.19;;;-1.58;91.15
59787;BME280;45672;51.612;5.536;2022-12-18T12:39:06;102203.28;;;-1.54;90.56
59787;BME280;45672;51.612;5.536;2022-12-18T12:41:33;102188.41;;;-1.52;90.49
59787;BME280;45672;51.612;5.536;2022-12-18T12:44:40;102185.66;;;-1.46;90.53
59787;BME280;45672;51.612;5.536;2022-12-18T12:49:48;102174.34;;;-1.47;90.44
59787;BME280;45672;51.612;5.536;2022-12-18T12:52:18;102159.53;;;-1.46;89.91
59787;BME280;45672;51.612;5.536;2022-12-18T12:54:46;102163.78;;;-1.42;90.43
59787;BME280;45672;51.612;5.536;2022-12-18T12:57:33;102163.84;;;-1.45;89.82
59787;BME280;45672;51.612;5.536;2022-12-18T13:00:15;102153.41;;;-1.45;90.43
59787;BME280;45672;51.612;5.536;2022-12-18T13:03:02;102151.53;;;-1.40;90.99
59787;BME280;45672;51.612;5.536;2022-12-18T13:05:51;102159.44;;;-1.43;90.13
59787;BME280;45672;51.612;5.536;2022-12-18T13:08:26;102149.91;;;-1.44;89.14
59787;BME280;45672;51.612;5.536;2022-12-18T13:10:53;102153.19;;;-1.37;88.58
59787;BME280;45672;51.612;5.536;2022-12-18T13:13:51;102143.69;;;-1.40;89.35
59787;BME280;45672;51.612;5.536;2022-12-18T13:16:21;102142.69;;;-1.36;89.42
59787;BME280;45672;51.612;5.536;2022-12-18T13:18:55;102144.41;;;-1.35;89.46
59787;BME280;45672;51.612;5.536;2022-12-18T13:21:28;102139.19;;;-1.35;89.30
59787;BME280;45672;51.612;5.536;2022-12-18T13:23:55;102130.44;;;-1.34;89.68
59787;BME280;45672;51.612;5.536;2022-12-18T13:28:53;102129.50;;;-1.31;88.89
59787;BME280;45672;51.612;5.536;2022-12-18T13:34:17;102132.94;;;-1.29;88.89
59787;BME280;45672;51.612;5.536;2022-12-18T13:36:43;102138.16;;;-1.29;89.14
59787;BME280;45672;51.612;5.536;2022-12-18T13:41:35;102124.06;;;-1.24;88.10
59787;BME280;45672;51.612;5.536;2022-12-18T13:44:31;102129.44;;;-1.30;88.63
59787;BME280;45672;51.612;5.536;2022-12-18T13:46:58;102128.75;;;-1.35;88.80
59787;BME280;45672;51.612;5.536;2022-12-18T13:49:30;102119.16;;;-1.34;88.97
59787;BME280;45672;51.612;5.536;2022-12-18T13:52:01;102118.25;;;-1.33;88.76
59787;BME280;45672;51.612;5.536;2022-12-18T13:54:38;102106.94;;;-1.34;89.00
59787;BME280;45672;51.612;5.536;2022-12-18T13:57:22;102115.59;;;-1.32;88.41
59787;BME280;45672;51.612;5.536;2022-12-18T13:59:50;102094.72;;;-1.32;88.72
59787;BME280;45672;51.612;5.536;2022-12-18T14:02:18;102104.28;;;-1.32;88.23
59787;BME280;45672;51.612;5.536;2022-12-18T14:04:46;102099.06;;;-1.32;88.41
59787;BME280;45672;51.612;5.536;2022-12-18T14:07:23;102094.75;;;-1.33;88.62
59787;BME280;45672;51.612;5.536;2022-12-18T14:09:52;102096.34;;;-1.28;88.46
59787;BME280;45672;51.612;5.536;2022-12-18T14:12:22;102097.31;;;-1.32;88.48
59787;BME280;45672;51.612;5.536;2022-12-18T14:15:43;102099.78;;;-1.27;88.80
59787;BME280;45672;51.612;5.536;2022-12-18T14:20:47;102093.78;;;-1.29;88.92
59787;BME280;45672;51.612;5.536;2022-12-18T14:23:31;102093.72;;;-1.28;88.80